sensor_id;sensor_type;location;lat;lon;timestamp;pressure;altitude;pressure_sealevel;temperature;humidity
76627;BME280;65519;53.230;10.390;2023-12-20T00:00:54;100621.69;;;6.58;100.00
76627;BME280;65519;53.230;10.390;2023-12-20T00:03:19;100630.69;;;6.47;100.00
76627;BME280;65519;53.230;10.390;2023-12-20T00:05:45;100624.69;;;6.45;100.00
76627;BME280;65519;53.230;10.390;2023-12-20T00:08:11;100636.34;;;6.46;100.00
76627;BME280;65519;53.230;10.390;2023-12-20T00:10:36;100636.38;;;6.63;100.00
76627;BME280;65519;53.230;10.390;2023-12-20T00:13:02;100637.94;;;6.58;100.00
76627;BME280;65519;53.230;10.390;2023-12-20T00:15:27;100638.75;;;6.59;100.00
76627;BME280;65519;53.230;10.390;2023-12-20T00:17:52;100643.25;;;6.53;100.00
76627;BME280;65519;53.230;10.390;2023-12-20T00:20:18;100633.59;;;6.57;100.00
76627;BME280;65519;53.230;10.390;2023-12-20T00:22:44;100638.56;;;6.49;100.00
76627;BME280;65519;53.230;10.390;2023-12-20T00:25:09;100640.47;;;6.48;100.00
76627;BME280;65519;53.230;10.390;2023-12-20T00:27:34;100637.34;;;6.56;100.00
76627;BME280;65519;53.230;10.390;2023-12-20T00:30:00;100641.19;;;6.44;100.00
76627;BME280;65519;53.230;10.390;2023-12-20T00:32:25;100640.84;;;6.40;100.00
76627;BME280;65519;53.230;10.390;2023-12-20T00:34:51;100635.53;;;6.45;100.00
76627;BME280;65519;53.230;10.390;2023-12-20T00:37:16;100637.69;;;6.32;100.00
76627;BME280;65519;53.230;10.390;2023-12-20T00:39:41;100630.16;;;6.34;100.00
76627;BME280;65519;53.230;10.390;2023-12-20T00:42:07;100630.41;;;6.32;100.00
76627;BME280;65519;53.230;10.390;2023-12-20T00:44:33;100622.88;;;6.34;100.00
76627;BME280;65519;53.230;10.390;2023-12-20T00:46:58;100628.34;;;6.39;100.00
76627;BME280;65519;53.230;10.390;2023-12-20T00:49:23;100635.59;;;6.34;100.00
76627;BME280;65519;53.230;10.390;2023-12-20T00:51:49;100625.97;;;6.26;100.00
76627;BME280;65519;53.230;10.390;2023-12-20T00:54:16;100621.28;;;6.21;100.00
76627;BME280;65519;53.230;10.390;2023-12-20T00:56:41;100617.75;;;6.21;100.00
76627;BME280;65519;53.230;10.390;2023-12-20T00:59:07;100614.56;;;6.24;100.00
76627;BME280;65519;53.230;10.390;2023-12-20T01:01:32;100624.31;;;6.25;100.00
76627;BME280;65519;53.230;10.390;2023-12-20T01:03:58;100626.44;;;6.23;100.00
76627;BME280;65519;53.230;10.390;2023-12-20T01:06:24;100621.44;;;6.15;100.00
76627;BME280;65519;53.230;10.390;2023-12-20T01:08:49;100618.53;;;6.05;100.00
76627;BME280;65519;53.230;10.390;2023-12-20T01:11:15;100615.47;;;6.01;100.00
76627;BME280;65519;53.230;10.390;2023-12-20T01:13:40;100609.81;;;6.03;100.00
76627;BME280;65519;53.230;10.390;2023-12-20T01:16:06;100618.56;;;5.93;100.00
76627;BME280;65519;53.230;10.390;2023-12-20T01:18:31;100612.53;;;6.03;100.00
76627;BME280;65519;53.230;10.390;2023-12-20T01:21:01;100622.06;;;6.05;100.00
76627;BME280;65519;53.230;10.390;2023-12-20T01:23:28;100620.06;;;6.01;100.00
76627;BME280;65519;53.230;10.390;2023-12-20T01:25:53;100609.13;;;5.96;100.00
76627;BME280;65519;53.230;10.390;2023-12-20T01:28:19;100602.66;;;5.97;100.00
76627;BME280;65519;53.230;10.390;2023-12-20T01:30:44;100599.38;;;5.95;100.00
76627;BME280;65519;53.230;10.390;2023-12-20T01:33:10;100599.47;;;6.00;100.00
76627;BME280;65519;53.230;10.390;2023-12-20T01:35:35;100596.06;;;6.04;100.00
76627;BME280;65519;53.230;10.390;2023-12-20T01:38:01;100599.00;;;6.03;100.00
76627;BME280;65519;53.230;10.390;2023-12-20T01:40:27;100590.69;;;5.93;100.00
76627;BME280;65519;53.230;10.390;2023-12-20T01:43:06;100586.91;;;5.94;100.00
76627;BME280;65519;53.230;10.390;2023-12-20T01:45:32;100598.88;;;5.98;100.00
76627;BME280;65519;53.230;10.390;2023-12-20T01:47:58;100591.75;;;5.92;100.00
76627;BME280;65519;53.230;10.390;2023-12-20T01:50:24;100597.81;;;5.99;100.00
76627;BME280;65519;53.230;10.390;2023-12-20T01:52:50;100593.81;;;6.01;100.00
76627;BME280;65519;53.230;10.390;2023-12-20T01:55:19;100593.72;;;5.96;100.00
76627;BME280;65519;53.230;10.390;2023-12-20T01:57:45;100590.44;;;5.94;100.00
76627;BME280;65519;53.230;10.390;2023-12-20T02:00:13;100584.69;;;5.91;100.00
76627;BME280;65519;53.230;10.390;2023-12-20T02:02:40;100578.66;;;6.00;100.00
76627;BME280;65519;53.230;10.390;2023-12-20T02:05:09;100575.50;;;5.92;100.00
76627;BME280;65519;53.230;10.390;2023-12-20T02:07:35;100574.31;;;5.87;100.00
76627;BME280;65519;53.230;10.390;2023-12-20T02:10:03;100568.13;;;5.75;100.00
76627;BME280;65519;53.230;10.390;2023-12-20T02:12:30;100565.41;;;5.75;100.00
76627;BME280;65519;53.230;10.390;2023-12-20T02:14:55;100560.00;;;5.75;100.00
76627;BME280;65519;53.230;10.390;2023-12-20T02:17:22;100554.41;;;5.65;100.00
76627;BME280;65519;53.230;10.390;2023-12-20T02:19:47;100550.50;;;5.73;100.00
76627;BME280;65519;53.230;10.390;2023-12-20T02:22:12;100549.81;;;5.66;100.00
76627;BME280;65519;53.230;10.390;2023-12-20T02:24:38;100557.69;;;5.67;100.00
76627;BME280;65519;53.230;10.390;2023-12-20T02:27:05;100543.25;;;5.62;100.00
76627;BME280;65519;53.230;10.390;2023-12-20T02:29:32;100539.72;;;5.61;100.00
76627;BME280;65519;53.230;10.390;2023-12-20T02:31:57;100549.50;;;5.62;100.00
76627;BME280;65519;53.230;10.390;2023-12-20T02:34:23;100559.22;;;5.63;100.00
76627;BME280;65519;53.230;10.390;2023-12-20T02:36:48;100551.09;;;5.63;100.00
76627;BME280;65519;53.230;10.390;2023-12-20T02:39:14;100554.41;;;5.65;100.00
76627;BME280;65519;53.230;10.390;2023-12-20T02:41:39;100549.19;;;5.75;100.00
76627;BME280;65519;53.230;10.390;2023-12-20T02:44:04;100559.09;;;5.70;100.00
76627;BME280;65519;53.230;10.390;2023-12-20T02:46:30;100552.63;;;5.71;100.00
76627;BME280;65519;53.230;10.390;2023-12-20T02:48:55;100540.34;;;5.80;100.00
76627;BME280;65519;53.230;10.390;2023-12-20T02:51:21;100555.91;;;5.73;100.00
76627;BME280;65519;53.230;10.390;2023-12-20T02:53:46;100538.09;;;5.60;100.00
76627;BME280;65519;53.230;10.390;2023-12-20T02:56:11;100530.63;;;5.67;100.00
76627;BME280;65519;53.230;10.390;2023-12-20T02:58:37;100531.47;;;5.68;100.00
76627;BME280;65519;53.230;10.390;2023-12-20T03:01:03;100529.09;;;5.71;100.00
76627;BME280;65519;53.230;10.390;2023-12-20T03:03:28;100533.72;;;5.59;100.00
76627;BME280;65519;53.230;10.390;2023-12-20T03:05:53;100534.63;;;5.65;100.00
76627;BME280;65519;53.230;10.390;2023-12-20T03:08:19;100535.00;;;5.68;100.00
76627;BME280;65519;53.230;10.390;2023-12-20T03:10:44;100524.06;;;5.63;100.00
76627;BME280;65519;53.230;10.390;2023-12-20T03:13:10;100527.25;;;5.60;100.00
76627;BME280;65519;53.230;10.390;2023-12-20T03:15:35;100529.25;;;5.53;100.00
76627;BME280;65519;53.230;10.390;2023-12-20T03:18:01;100519.75;;;5.62;100.00
76627;BME280;65519;53.230;10.390;2023-12-20T03:20:26;100512.34;;;5.58;100.00
76627;BME280;65519;53.230;10.390;2023-12-20T03:22:52;100512.56;;;5.56;100.00
76627;BME280;65519;53.230;10.390;2023-12-20T03:25:17;100501.91;;;5.49;100.00
76627;BME280;65519;53.230;10.390;2023-12-20T03:27:43;100500.16;;;5.43;100.00
76627;BME280;65519;53.230;10.390;2023-12-20T03:30:08;100491.72;;;5.40;100.00
76627;BME280;65519;53.230;10.390;2023-12-20T03:32:34;100498.06;;;5.34;100.00
76627;BME280;65519;53.230;10.390;2023-12-20T03:34:59;100483.13;;;5.31;100.00
76627;BME280;65519;53.230;10.390;2023-12-20T03:37:25;100485.97;;;5.36;100.00
76627;BME280;65519;53.230;10.390;2023-12-20T03:39:50;100478.91;;;5.35;100.00
76627;BME280;65519;53.230;10.390;2023-12-20T03:42:16;100484.47;;;5.29;100.00
76627;BME280;65519;53.230;10.390;2023-12-20T03:44:41;100479.06;;;5.29;100.00
76627;BME280;65519;53.230;10.390;2023-12-20T03:47:07;100480.13;;;5.28;100.00
76627;BME280;65519;53.230;10.390;2023-12-20T03:49:33;100475.84;;;5.32;100.00
76627;BME280;65519;53.230;10.390;2023-12-20T03:51:58;100472.53;;;5.41;100.00
76627;BME280;65519;53.230;10.390;2023-12-20T03:54:24;100474.53;;;5.46;100.00
76627;BME280;65519;53.230;10.390;2023-12-20T03:56:49;100483.22;;;5.48;100.00
76627;BME280;65519;53.230;10.390;2023-12-20T03:59:15;100474.63;;;5.51;100.00
76627;BME280;65519;53.230;10.390;2023-12-20T04:01:44;100471.72;;;5.41;100.00
76627;BME280;65519;53.230;10.390;2023-12-20T04:04:12;100469.94;;;5.46;100.00
76627;BME280;65519;53.230;10.390;2023-12-20T04:06:38;100467.94;;;5.42;100.00
76627;BME280;65519;53.230;10.390;2023-12-20T04:09:03;100461.25;;;5.44;100.00
76627;BME280;65519;53.230;10.390;2023-12-20T04:11:29;100456.78;;;5.50;100.00
76627;BME280;65519;53.230;10.390;2023-12-20T04:13:55;100452.66;;;5.47;100.00
76627;BME280;65519;53.230;10.390;2023-12-20T04:16:20;100458.88;;;5.48;100.00
76627;BME280;65519;53.230;10.390;2023-12-20T04:18:46;100451.59;;;5.48;100.00
76627;BME280;65519;53.230;10.390;2023-12-20T04:21:11;100454.72;;;5.57;100.00
76627;BME280;65519;53.230;10.390;2023-12-20T04:23:37;100433.00;;;5.52;100.00
76627;BME280;65519;53.230;10.390;2023-12-20T04:26:02;100434.56;;;5.48;100.00
76627;BME280;65519;53.230;10.390;2023-12-20T04:28:28;100431.47;;;5.56;100.00
76627;BME280;65519;53.230;10.390;2023-12-20T04:30:55;100426.41;;;5.60;100.00
76627;BME280;65519;53.230;10.390;2023-12-20T04:33:21;100424.88;;;5.52;100.00
76627;BME280;65519;53.230;10.390;2023-12-20T04:35:47;100428.34;;;5.64;100.00
76627;BME280;65519;53.230;10.390;2023-12-20T04:38:12;100439.41;;;5.63;100.00
76627;BME280;65519;53.230;10.390;2023-12-20T04:40:38;100433.91;;;5.58;100.00
76627;BME280;65519;53.230;10.390;2023-12-20T04:43:05;100430.50;;;5.62;100.00
76627;BME280;65519;53.230;10.390;2023-12-20T04:45:31;100424.50;;;5.60;100.00
76627;BME280;65519;53.230;10.390;2023-12-20T04:47:56;100422.72;;;5.66;100.00
76627;BME280;65519;53.230;10.390;2023-12-20T04:50:22;100420.00;;;5.66;100.00
76627;BME280;65519;53.230;10.390;2023-12-20T04:52:47;100412.47;;;5.68;100.00
76627;BME280;65519;53.230;10.390;2023-12-20T04:55:13;100413.19;;;5.63;100.00
76627;BME280;65519;53.230;10.390;2023-12-20T04:57:39;100406.91;;;5.74;100.00
76627;BME280;65519;53.230;10.390;2023-12-20T05:00:05;100404.13;;;5.69;100.00
76627;BME280;65519;53.230;10.390;2023-12-20T05:02:31;100407.97;;;5.73;100.00
76627;BME280;65519;53.230;10.390;2023-12-20T05:04:56;100410.41;;;5.75;100.00
76627;BME280;65519;53.230;10.390;2023-12-20T05:07:22;100416.34;;;5.72;100.00
76627;BME280;65519;53.230;10.390;2023-12-20T05:09:47;100393.06;;;5.71;100.00
76627;BME280;65519;53.230;10.390;2023-12-20T05:12:12;100403.94;;;5.76;100.00
76627;BME280;65519;53.230;10.390;2023-12-20T05:14:38;100400.25;;;5.65;100.00
76627;BME280;65519;53.230;10.390;2023-12-20T05:17:03;100401.50;;;5.74;100.00
76627;BME280;65519;53.230;10.390;2023-12-20T05:19:29;100398.78;;;5.74;100.00
76627;BME280;65519;53.230;10.390;2023-12-20T05:21:54;100401.94;;;5.83;100.00
76627;BME280;65519;53.230;10.390;2023-12-20T05:24:20;100405.94;;;5.80;100.00
76627;BME280;65519;53.230;10.390;2023-12-20T05:26:45;100400.03;;;5.83;100.00
76627;BME280;65519;53.230;10.390;2023-12-20T05:29:10;100411.69;;;5.84;100.00
76627;BME280;65519;53.230;10.390;2023-12-20T05:31:36;100398.22;;;5.72;100.00
76627;BME280;65519;53.230;10.390;2023-12-20T05:34:01;100392.31;;;5.75;100.00
76627;BME280;65519;53.230;10.390;2023-12-20T05:36:27;100405.59;;;5.77;100.00
76627;BME280;65519;53.230;10.390;2023-12-20T05:38:52;100393.13;;;5.76;100.00
76627;BME280;65519;53.230;10.390;2023-12-20T05:41:18;100395.78;;;5.87;100.00
76627;BME280;65519;53.230;10.390;2023-12-20T05:43:43;100402.06;;;5.76;100.00
76627;BME280;65519;53.230;10.390;2023-12-20T05:46:12;100397.81;;;5.80;100.00
76627;BME280;65519;53.230;10.390;2023-12-20T05:48:38;100395.13;;;5.80;100.00
76627;BME280;65519;53.230;10.390;2023-12-20T05:51:03;100403.88;;;5.87;100.00
76627;BME280;65519;53.230;10.390;2023-12-20T05:53:29;100399.91;;;5.90;100.00
76627;BME280;65519;53.230;10.390;2023-12-20T05:55:54;100408.59;;;5.92;100.00
76627;BME280;65519;53.230;10.390;2023-12-20T05:58:20;100392.47;;;5.85;100.00
76627;BME280;65519;53.230;10.390;2023-12-20T06:00:45;100391.41;;;5.86;100.00
76627;BME280;65519;53.230;10.390;2023-12-20T06:03:11;100396.81;;;5.86;100.00
76627;BME280;65519;53.230;10.390;2023-12-20T06:05:36;100388.25;;;5.90;100.00
76627;BME280;65519;53.230;10.390;2023-12-20T06:08:02;100386.97;;;5.92;100.00
76627;BME280;65519;53.230;10.390;2023-12-20T06:10:28;100394.84;;;5.94;100.00
76627;BME280;65519;53.230;10.390;2023-12-20T06:12:54;100389.44;;;5.94;100.00
76627;BME280;65519;53.230;10.390;2023-12-20T06:15:20;100393.84;;;6.00;100.00
76627;BME280;65519;53.230;10.390;2023-12-20T06:17:46;100377.19;;;5.91;100.00
76627;BME280;65519;53.230;10.390;2023-12-20T06:20:12;100371.84;;;5.96;100.00
76627;BME280;65519;53.230;10.390;2023-12-20T06:22:38;100372.38;;;5.93;100.00
76627;BME280;65519;53.230;10.390;2023-12-20T06:25:04;100377.44;;;5.90;100.00
76627;BME280;65519;53.230;10.390;2023-12-20T06:27:30;100369.31;;;5.90;100.00
76627;BME280;65519;53.230;10.390;2023-12-20T06:29:57;100362.63;;;5.92;100.00
76627;BME280;65519;53.230;10.390;2023-12-20T06:32:23;100367.59;;;5.83;100.00
76627;BME280;65519;53.230;10.390;2023-12-20T06:34:48;100366.38;;;5.91;100.00
76627;BME280;65519;53.230;10.390;2023-12-20T06:37:14;100359.19;;;5.85;100.00
76627;BME280;65519;53.230;10.390;2023-12-20T06:39:40;100366.13;;;5.93;100.00
76627;BME280;65519;53.230;10.390;2023-12-20T06:42:06;100357.91;;;5.87;100.00
76627;BME280;65519;53.230;10.390;2023-12-20T06:44:31;100363.31;;;5.87;100.00
76627;BME280;65519;53.230;10.390;2023-12-20T06:46:57;100371.56;;;5.93;100.00
76627;BME280;65519;53.230;10.390;2023-12-20T06:49:23;100360.78;;;5.98;100.00
76627;BME280;65519;53.230;10.390;2023-12-20T06:51:48;100355.91;;;5.95;100.00
76627;BME280;65519;53.230;10.390;2023-12-20T06:54:14;100359.66;;;5.94;100.00
76627;BME280;65519;53.230;10.390;2023-12-20T06:56:39;100346.88;;;5.89;100.00
76627;BME280;65519;53.230;10.390;2023-12-20T06:59:06;100345.44;;;5.86;100.00
76627;BME280;65519;53.230;10.390;2023-12-20T07:01:32;100343.97;;;5.96;100.00
76627;BME280;65519;53.230;10.390;2023-12-20T07:03:57;100339.09;;;5.93;100.00
76627;BME280;65519;53.230;10.390;2023-12-20T07:06:22;100336.19;;;5.82;100.00
76627;BME280;65519;53.230;10.390;2023-12-20T07:08:49;100333.56;;;5.87;100.00
76627;BME280;65519;53.230;10.390;2023-12-20T07:11:14;100344.97;;;5.90;100.00
76627;BME280;65519;53.230;10.390;2023-12-20T07:13:40;100335.69;;;5.85;100.00
76627;BME280;65519;53.230;10.390;2023-12-20T07:16:05;100327.00;;;5.83;100.00
76627;BME280;65519;53.230;10.390;2023-12-20T07:18:31;100328.38;;;5.86;100.00
76627;BME280;65519;53.230;10.390;2023-12-20T07:20:56;100326.94;;;5.95;100.00
76627;BME280;65519;53.230;10.390;2023-12-20T07:23:22;100323.78;;;5.86;100.00
76627;BME280;65519;53.230;10.390;2023-12-20T07:25:47;100322.84;;;5.93;100.00
76627;BME280;65519;53.230;10.390;2023-12-20T07:28:13;100320.72;;;5.95;100.00
76627;BME280;65519;53.230;10.390;2023-12-20T07:30:38;100328.41;;;6.03;100.00
76627;BME280;65519;53.230;10.390;2023-12-20T07:33:04;100332.25;;;6.07;100.00
76627;BME280;65519;53.230;10.390;2023-12-20T07:35:30;100319.72;;;6.01;100.00
76627;BME280;65519;53.230;10.390;2023-12-20T07:37:55;100331.38;;;6.01;100.00
76627;BME280;65519;53.230;10.390;2023-12-20T07:40:21;100328.41;;;6.03;100.00
76627;BME280;65519;53.230;10.390;2023-12-20T07:42:46;100326.78;;;6.02;100.00
76627;BME280;65519;53.230;10.390;2023-12-20T07:45:12;100324.75;;;5.92;100.00
76627;BME280;65519;53.230;10.390;2023-12-20T07:47:37;100323.50;;;6.00;100.00
76627;BME280;65519;53.230;10.390;2023-12-20T07:50:03;100326.94;;;5.95;100.00
76627;BME280;65519;53.230;10.390;2023-12-20T07:52:29;100323.50;;;6.00;100.00
76627;BME280;65519;53.230;10.390;2023-12-20T07:54:55;100315.13;;;6.01;100.00
76627;BME280;65519;53.230;10.390;2023-12-20T07:57:20;100326.53;;;6.03;100.00
76627;BME280;65519;53.230;10.390;2023-12-20T07:59:46;100318.81;;;5.95;100.00
76627;BME280;65519;53.230;10.390;2023-12-20T08:02:11;100313.59;;;6.05;100.00
76627;BME280;65519;53.230;10.390;2023-12-20T08:04:37;100308.56;;;5.97;100.00
76627;BME280;65519;53.230;10.390;2023-12-20T08:07:03;100297.44;;;5.94;100.00
76627;BME280;65519;53.230;10.390;2023-12-20T08:09:29;100307.75;;;5.97;100.00
76627;BME280;65519;53.230;10.390;2023-12-20T08:11:55;100300.78;;;6.01;100.00
76627;BME280;65519;53.230;10.390;2023-12-20T08:14:20;100298.00;;;5.96;100.00
76627;BME280;65519;53.230;10.390;2023-12-20T08:16:46;100294.75;;;5.94;100.00
76627;BME280;65519;53.230;10.390;2023-12-20T08:19:11;100305.63;;;5.99;100.00
76627;BME280;65519;53.230;10.390;2023-12-20T08:21:37;100287.25;;;6.01;100.00
76627;BME280;65519;53.230;10.390;2023-12-20T08:24:03;100291.84;;;6.00;100.00
76627;BME280;65519;53.230;10.390;2023-12-20T08:26:28;100290.22;;;5.99;100.00
76627;BME280;65519;53.230;10.390;2023-12-20T08:28:54;100289.88;;;5.96;100.00
76627;BME280;65519;53.230;10.390;2023-12-20T08:31:19;100292.34;;;5.97;100.00
76627;BME280;65519;53.230;10.390;2023-12-20T08:33:47;100297.00;;;6.02;100.00
76627;BME280;65519;53.230;10.390;2023-12-20T08:36:13;100291.13;;;6.05;100.00
76627;BME280;65519;53.230;10.390;2023-12-20T08:38:38;100278.56;;;5.99;100.00
76627;BME280;65519;53.230;10.390;2023-12-20T08:41:04;100268.38;;;6.06;100.00
76627;BME280;65519;53.230;10.390;2023-12-20T08:43:34;100258.06;;;6.03;100.00
76627;BME280;65519;53.230;10.390;2023-12-20T08:46:00;100249.44;;;6.06;100.00
76627;BME280;65519;53.230;10.390;2023-12-20T08:48:26;100257.53;;;6.06;100.00
76627;BME280;65519;53.230;10.390;2023-12-20T08:50:51;100247.88;;;6.10;100.00
76627;BME280;65519;53.230;10.390;2023-12-20T08:53:18;100245.41;;;6.08;100.00
76627;BME280;65519;53.230;10.390;2023-12-20T08:55:44;100240.66;;;6.15;100.00
76627;BME280;65519;53.230;10.390;2023-12-20T08:58:09;100251.59;;;6.26;100.00
76627;BME280;65519;53.230;10.390;2023-12-20T09:00:35;100227.78;;;6.28;100.00
76627;BME280;65519;53.230;10.390;2023-12-20T09:03:01;100233.34;;;6.38;100.00
76627;BME280;65519;53.230;10.390;2023-12-20T09:05:27;100226.31;;;6.37;100.00
76627;BME280;65519;53.230;10.390;2023-12-20T09:07:53;100230.13;;;6.41;100.00
76627;BME280;65519;53.230;10.390;2023-12-20T09:10:19;100220.44;;;6.45;100.00
76627;BME280;65519;53.230;10.390;2023-12-20T09:12:52;100231.00;;;6.46;100.00
76627;BME280;65519;53.230;10.390;2023-12-20T09:15:22;100219.03;;;6.42;100.00
76627;BME280;65519;53.230;10.390;2023-12-20T09:17:48;100223.06;;;6.40;100.00
76627;BME280;65519;53.230;10.390;2023-12-20T09:20:13;100215.47;;;6.37;100.00
76627;BME280;65519;53.230;10.390;2023-12-20T09:22:39;100215.72;;;6.35;100.00
76627;BME280;65519;53.230;10.390;2023-12-20T09:25:05;100223.84;;;6.35;100.00
76627;BME280;65519;53.230;10.390;2023-12-20T09:27:30;100216.28;;;6.37;100.00
76627;BME280;65519;53.230;10.390;2023-12-20T09:29:56;100211.06;;;6.31;100.00
76627;BME280;65519;53.230;10.390;2023-12-20T09:32:21;100221.59;;;6.27;100.00
76627;BME280;65519;53.230;10.390;2023-12-20T09:34:47;100209.66;;;6.28;100.00
76627;BME280;65519;53.230;10.390;2023-12-20T09:37:13;100206.34;;;6.21;100.00
76627;BME280;65519;53.230;10.390;2023-12-20T09:39:39;100192.75;;;6.16;100.00
76627;BME280;65519;53.230;10.390;2023-12-20T09:42:06;100199.53;;;6.18;100.00
76627;BME280;65519;53.230;10.390;2023-12-20T09:44:32;100185.47;;;6.16;100.00
76627;BME280;65519;53.230;10.390;2023-12-20T09:47:02;100181.72;;;6.22;100.00
76627;BME280;65519;53.230;10.390;2023-12-20T09:49:27;100174.34;;;6.18;100.00
76627;BME280;65519;53.230;10.390;2023-12-20T09:51:54;100163.75;;;6.11;100.00
76627;BME280;65519;53.230;10.390;2023-12-20T09:54:21;100202.50;;;6.17;100.00
76627;BME280;65519;53.230;10.390;2023-12-20T09:56:46;100190.34;;;6.19;100.00
76627;BME280;65519;53.230;10.390;2023-12-20T09:59:12;100195.03;;;6.24;100.00
76627;BME280;65519;53.230;10.390;2023-12-20T10:01:41;100194.66;;;6.15;100.00
76627;BME280;65519;53.230;10.390;2023-12-20T10:04:09;100200.72;;;6.06;100.00
76627;BME280;65519;53.230;10.390;2023-12-20T10:06:36;100233.63;;;5.98;100.00
76627;BME280;65519;53.230;10.390;2023-12-20T10:09:02;100241.69;;;5.93;100.00
76627;BME280;65519;53.230;10.390;2023-12-20T10:11:27;100216.81;;;5.57;100.00
76627;BME280;65519;53.230;10.390;2023-12-20T10:13:59;100216.81;;;5.57;100.00
76627;BME280;65519;53.230;10.390;2023-12-20T10:16:25;100218.78;;;5.62;100.00
76627;BME280;65519;53.230;10.390;2023-12-20T10:18:52;100225.50;;;5.98;100.00
76627;BME280;65519;53.230;10.390;2023-12-20T10:21:18;100218.19;;;6.15;100.00
76627;BME280;65519;53.230;10.390;2023-12-20T10:23:43;100205.19;;;6.17;100.00
76627;BME280;65519;53.230;10.390;2023-12-20T10:26:09;100221.81;;;6.04;100.00
76627;BME280;65519;53.230;10.390;2023-12-20T10:28:36;100214.25;;;6.06;100.00
76627;BME280;65519;53.230;10.390;2023-12-20T10:31:02;100207.59;;;6.13;100.00
76627;BME280;65519;53.230;10.390;2023-12-20T10:33:28;100215.84;;;6.02;100.00
76627;BME280;65519;53.230;10.390;2023-12-20T10:35:55;100219.22;;;5.92;100.00
76627;BME280;65519;53.230;10.390;2023-12-20T10:38:21;100216.00;;;5.95;100.00
76627;BME280;65519;53.230;10.390;2023-12-20T10:40:47;100209.06;;;5.82;100.00
76627;BME280;65519;53.230;10.390;2023-12-20T10:43:15;100214.22;;;5.84;100.00
76627;BME280;65519;53.230;10.390;2023-12-20T10:45:42;100215.78;;;5.80;100.00
76627;BME280;65519;53.230;10.390;2023-12-20T10:48:10;100208.94;;;5.72;100.00
76627;BME280;65519;53.230;10.390;2023-12-20T10:50:36;100210.38;;;5.80;100.00
76627;BME280;65519;53.230;10.390;2023-12-20T10:53:04;100219.22;;;5.75;100.00
76627;BME280;65519;53.230;10.390;2023-12-20T10:55:29;100229.25;;;5.92;100.00
76627;BME280;65519;53.230;10.390;2023-12-20T10:58:08;100208.50;;;5.80;100.00
76627;BME280;65519;53.230;10.390;2023-12-20T11:00:39;100202.22;;;5.97;100.00
76627;BME280;65519;53.230;10.390;2023-12-20T11:03:09;100205.50;;;5.99;100.00
76627;BME280;65519;53.230;10.390;2023-12-20T11:05:52;100186.66;;;6.04;100.00
76627;BME280;65519;53.230;10.390;2023-12-20T11:14:06;100204.88;;;5.92;100.00
76627;BME280;65519;53.230;10.390;2023-12-20T11:16:37;100194.56;;;5.89;100.00
76627;BME280;65519;53.230;10.390;2023-12-20T11:19:05;100197.66;;;5.80;100.00
76627;BME280;65519;53.230;10.390;2023-12-20T11:21:31;100183.13;;;5.86;100.00
76627;BME280;65519;53.230;10.390;2023-12-20T11:23:56;100184.78;;;5.87;100.00
76627;BME280;65519;53.230;10.390;2023-12-20T11:26:22;100189.06;;;5.83;100.00
76627;BME280;65519;53.230;10.390;2023-12-20T11:28:51;100210.44;;;5.85;100.00
76627;BME280;65519;53.230;10.390;2023-12-20T11:31:17;100199.06;;;5.83;100.00
76627;BME280;65519;53.230;10.390;2023-12-20T11:33:42;100193.25;;;5.74;100.00
76627;BME280;65519;53.230;10.390;2023-12-20T11:36:13;100177.09;;;5.79;100.00
76627;BME280;65519;53.230;10.390;2023-12-20T11:38:54;100179.22;;;5.77;100.00
76627;BME280;65519;53.230;10.390;2023-12-20T11:41:22;100184.97;;;5.81;100.00
76627;BME280;65519;53.230;10.390;2023-12-20T11:43:48;100192.84;;;5.82;100.00
76627;BME280;65519;53.230;10.390;2023-12-20T11:46:14;100190.88;;;5.78;100.00
76627;BME280;65519;53.230;10.390;2023-12-20T11:48:40;100189.59;;;5.85;100.00
76627;BME280;65519;53.230;10.390;2023-12-20T11:51:09;100188.53;;;5.86;100.00
76627;BME280;65519;53.230;10.390;2023-12-20T11:53:35;100169.59;;;5.86;100.00
76627;BME280;65519;53.230;10.390;2023-12-20T11:56:03;100185.19;;;5.96;100.00
76627;BME280;65519;53.230;10.390;2023-12-20T11:58:29;100180.47;;;6.08;100.00
76627;BME280;65519;53.230;10.390;2023-12-20T12:00:55;100175.75;;;5.99;100.00
76627;BME280;65519;53.230;10.390;2023-12-20T12:03:20;100180.66;;;6.23;100.00
76627;BME280;65519;53.230;10.390;2023-12-20T12:05:47;100178.50;;;6.47;100.00
76627;BME280;65519;53.230;10.390;2023-12-20T12:08:13;100168.19;;;6.44;100.00
76627;BME280;65519;53.230;10.390;2023-12-20T12:10:38;100174.63;;;6.65;100.00
76627;BME280;65519;53.230;10.390;2023-12-20T12:13:03;100168.75;;;6.46;100.00
76627;BME280;65519;53.230;10.390;2023-12-20T12:15:29;100186.16;;;6.55;100.00
76627;BME280;65519;53.230;10.390;2023-12-20T12:17:56;100179.34;;;6.53;100.00
76627;BME280;65519;53.230;10.390;2023-12-20T12:20:22;100175.72;;;6.42;100.00
76627;BME280;65519;53.230;10.390;2023-12-20T12:23:08;100166.88;;;6.52;100.00
76627;BME280;65519;53.230;10.390;2023-12-20T12:25:36;100165.56;;;6.54;100.00
76627;BME280;65519;53.230;10.390;2023-12-20T12:28:05;100169.59;;;6.52;100.00
76627;BME280;65519;53.230;10.390;2023-12-20T12:30:30;100172.28;;;6.47;100.00
76627;BME280;65519;53.230;10.390;2023-12-20T12:32:56;100159.16;;;6.39;100.00
76627;BME280;65519;53.230;10.390;2023-12-20T12:35:22;100164.53;;;6.34;100.00
76627;BME280;65519;53.230;10.390;2023-12-20T12:37:47;100164.28;;;6.35;100.00
76627;BME280;65519;53.230;10.390;2023-12-20T12:40:14;100154.53;;;6.34;100.00